Grande Italia — IBTF — position and weather

sailwx.info

Track history (hours):
 
Tides and Currents Weather Stations Pressure Air Temp Water Temp Dewpoint Dewpoint Depression Visibility Wind Speed Wind Dir Waves Ship Positions

Grande Italia

Last reported at 2017-Mar-24 21:33 UTC. Time now 2017-Mar-24 22:09 UTC.
Position N 33°38' E 033°19'.

Length 177 m; draft 8.2 m.

Type: Ship. MMSI: 247039300.

Date/timePositionNaut miles runAvg speedWind from/ knotsBaromVisibWave heightAir tempDewpointWater temp
2017-Mar-24 21:33N 33°38' E 033°19'1414.2
2017-Mar-24 20:33N 33°24' E 033°22'1413.7
2017-Mar-24 19:32N 33°10' E 033°21'1010.7
2017-Mar-24 18:33N 33°03' E 033°29'1010.2
2017-Mar-24 17:33N 32°54' E 033°35'5 5.0
2017-Mar-24 16:33N 32°49' E 033°35'78 4.8
2017-Mar-24 00:12N 31°52' E 034°38'4913.4
2017-Mar-23 20:33N 32°08' E 033°44'1816.5
2017-Mar-23 19:26N 32°08' E 033°22'192 8.0
2017-Mar-22 19:24N 31°14' E 029°45'75216.7
2017-Mar-20 22:20N 40°02' E 018°46'1417.4
2017-Mar-20 21:33N 40°13' E 018°35'2017.9
2017-Mar-20 20:25N 40°30' E 018°21'1717.6
2017-Mar-20 19:27N 40°44' E 018°09'22117.1
2017-Mar-20 06:30N 43°26' E 014°45'2317.2
2017-Mar-20 05:12N 43°44' E 014°27'1117.4
2017-Mar-20 04:33N 43°53' E 014°18'1717.2
2017-Mar-20 03:33N 44°06' E 014°02'1717.2
2017-Mar-20 02:33N 44°20' E 013°49'1717.2
2017-Mar-20 01:33N 44°35' E 013°36'1717.2
2017-Mar-20 00:33N 44°49' E 013°23'1717.3
2017-Mar-19 23:33N 45°03' E 013°08'1717.0
2017-Mar-19 22:33N 45°19' E 013°01'1716.6
2017-Mar-19 21:34N 45°32' E 013°16'1615.8
2017-Mar-19 20:33N 45°36' E 013°38'5 5.2
2017-Mar-19 19:33N 45°33' E 013°44'0 0.0
2017-Mar-19 18:33N 45°33' E 013°44'0 0.0
2017-Mar-19 17:33N 45°33' E 013°44'0 0.0
2017-Mar-19 16:33N 45°33' E 013°44'0 0.0
2017-Mar-19 15:24N 45°33' E 013°44'0 0.0
2017-Mar-19 14:33N 45°33' E 013°44'0 0.0
2017-Mar-19 13:33N 45°33' E 013°44'0 0.0
2017-Mar-19 12:33N 45°33' E 013°44'0 0.0
2017-Mar-19 11:33N 45°33' E 013°44'0 0.0
2017-Mar-19 10:33N 45°33' E 013°44'0 0.0
2017-Mar-19 09:30N 45°33' E 013°44'0 0.0
2017-Mar-19 08:33N 45°33' E 013°44'0 0.0
2017-Mar-19 07:27N 45°33' E 013°44'0 0.0
2017-Mar-19 06:33N 45°33' E 013°44'0 0.0
2017-Mar-19 05:33N 45°33' E 013°44'0 0.0
2017-Mar-19 04:33N 45°33' E 013°44'0 0.0
2017-Mar-19 03:33N 45°33' E 013°44'0 0.0
2017-Mar-19 02:33N 45°33' E 013°44'0 0.0
2017-Mar-19 01:33N 45°33' E 013°44'0 0.0
2017-Mar-19 00:33N 45°33' E 013°44'0 0.0
2017-Mar-18 23:33N 45°33' E 013°44'0 0.0
2017-Mar-18 22:33N 45°33' E 013°44'0 0.0
2017-Mar-18 21:33N 45°33' E 013°44'2 1.5
2017-Mar-18 20:33N 45°34' E 013°42'1211.8
2017-Mar-18 19:34N 45°32' E 013°26'1515.2
2017-Mar-18 18:34N 45°21' E 013°10'1616.2
2017-Mar-18 17:33N 45°05' E 013°09'1818.0
2017-Mar-18 16:33N 44°52' E 012°51'1818.0
2017-Mar-18 15:34N 44°39' E 012°33'18 1.3
2017-Mar-18 01:26N 44°27' E 012°15'2 2.4
2017-Mar-18 00:27N 44°29' E 012°16'910.1
2017-Mar-17 23:34N 44°34' E 012°27'1615.9
2017-Mar-17 22:33N 44°46' E 012°42'1616.2
2017-Mar-17 21:33N 44°58' E 012°57'1615.6
2017-Mar-17 20:33N 45°13' E 013°01'1414.4
2017-Mar-17 19:33N 45°27' E 013°08'1615.9
2017-Mar-17 18:33N 45°36' E 013°27'1111.3
2017-Mar-17 17:33N 45°46' E 013°34'2 1.5
2017-Mar-17 16:23N 45°47' E 013°33'0 0.0
2017-Mar-17 15:32N 45°47' E 013°33'0 0.0
2017-Mar-17 14:32N 45°47' E 013°33'0 0.0
2017-Mar-17 13:32N 45°47' E 013°33'0 0.0
2017-Mar-17 12:20N 45°47' E 013°33'0 0.0
2017-Mar-17 11:23N 45°47' E 013°33'0 0.0
2017-Mar-17 10:32N 45°47' E 013°33'0 0.0
2017-Mar-17 09:29N 45°47' E 013°33'0 0.0
2017-Mar-17 08:32N 45°47' E 013°33'0 0.0
2017-Mar-17 07:32N 45°47' E 013°33'0 0.0
2017-Mar-17 06:26N 45°47' E 013°33'0 0.0
2017-Mar-17 05:32N 45°47' E 013°33'0 0.0
2017-Mar-17 04:32N 45°47' E 013°33'0 0.0
2017-Mar-17 03:32N 45°47' E 013°33'0 0.0
2017-Mar-17 02:29N 45°47' E 013°33'0 0.0
2017-Mar-17 01:29N 45°47' E 013°33'0 0.0
2017-Mar-17 00:29N 45°47' E 013°33'0 0.0
2017-Mar-16 23:32N 45°47' E 013°33'0 0.0
2017-Mar-16 22:29N 45°47' E 013°33'0 0.0
2017-Mar-16 21:29N 45°47' E 013°33'0 0.0
2017-Mar-16 20:26N 45°47' E 013°33'0 0.0
2017-Mar-16 19:29N 45°47' E 013°33'0 0.0
2017-Mar-16 18:29N 45°47' E 013°33'0 0.0
2017-Mar-16 17:29N 45°47' E 013°33'0 0.0
2017-Mar-16 16:26N 45°47' E 013°33'0 0.0
2017-Mar-16 15:32N 45°47' E 013°33'0 0.0
2017-Mar-16 14:32N 45°47' E 013°33'0 0.0
2017-Mar-16 13:29N 45°47' E 013°33'0 0.0
2017-Mar-16 12:32N 45°47' E 013°33'0 0.0
2017-Mar-16 11:29N 45°47' E 013°33'0 0.0
2017-Mar-16 10:26N 45°47' E 013°33'0 0.0
2017-Mar-16 09:29N 45°47' E 013°33'0 0.0
2017-Mar-16 08:29N 45°47' E 013°33'0 0.0
2017-Mar-16 07:26N 45°47' E 013°33'4 4.2
2017-Mar-16 06:33N 45°44' E 013°36'1414.3
2017-Mar-16 05:33N 45°32' E 013°27'1616.1
2017-Mar-16 04:33N 45°20' E 013°12'1817.8
2017-Mar-16 03:33N 45°03' E 013°20'1817.7
2017-Mar-16 02:33N 44°48' E 013°33'1817.7
2017-Mar-16 01:33N 44°33' E 013°46'1817.5
2017-Mar-16 00:33N 44°18' E 013°59'1817.5
2017-Mar-15 23:33N 44°03' E 014°12'  
Track history (hours):
 
Tides and Currents Weather Stations Pressure Air Temp Water Temp Dewpoint Dewpoint Depression Visibility Wind Speed Wind Dir Waves Ship Positions

Grande Italia

Last reported at 2017-Mar-24 21:33 UTC. Time now 2017-Mar-24 22:09 UTC.
Position N 33°38' E 033°19'.

Length 177 m; draft 8.2 m.

Type: Ship. MMSI: 247039300.

Date/timePositionNaut miles runAvg speedWind from/ knotsBaromVisibWave heightAir tempDewpointWater temp
2017-Mar-24 21:33N 33°38' E 033°19'1414.2
2017-Mar-24 20:33N 33°24' E 033°22'1413.7
2017-Mar-24 19:32N 33°10' E 033°21'1010.7
2017-Mar-24 18:33N 33°03' E 033°29'1010.2
2017-Mar-24 17:33N 32°54' E 033°35'5 5.0
2017-Mar-24 16:33N 32°49' E 033°35'78 4.8
2017-Mar-24 00:12N 31°52' E 034°38'4913.4
2017-Mar-23 20:33N 32°08' E 033°44'1816.5
2017-Mar-23 19:26N 32°08' E 033°22'192 8.0
2017-Mar-22 19:24N 31°14' E 029°45'75216.7
2017-Mar-20 22:20N 40°02' E 018°46'1417.4
2017-Mar-20 21:33N 40°13' E 018°35'2017.9
2017-Mar-20 20:25N 40°30' E 018°21'1717.6
2017-Mar-20 19:27N 40°44' E 018°09'22117.1
2017-Mar-20 06:30N 43°26' E 014°45'2317.2
2017-Mar-20 05:12N 43°44' E 014°27'1117.4
2017-Mar-20 04:33N 43°53' E 014°18'1717.2
2017-Mar-20 03:33N 44°06' E 014°02'1717.2
2017-Mar-20 02:33N 44°20' E 013°49'1717.2
2017-Mar-20 01:33N 44°35' E 013°36'1717.2
2017-Mar-20 00:33N 44°49' E 013°23'1717.3
2017-Mar-19 23:33N 45°03' E 013°08'1717.0
2017-Mar-19 22:33N 45°19' E 013°01'1716.6
2017-Mar-19 21:34N 45°32' E 013°16'1615.8
2017-Mar-19 20:33N 45°36' E 013°38'5 5.2
2017-Mar-19 19:33N 45°33' E 013°44'0 0.0
2017-Mar-19 18:33N 45°33' E 013°44'0 0.0
2017-Mar-19 17:33N 45°33' E 013°44'0 0.0
2017-Mar-19 16:33N 45°33' E 013°44'0 0.0
2017-Mar-19 15:24N 45°33' E 013°44'0 0.0
2017-Mar-19 14:33N 45°33' E 013°44'0 0.0
2017-Mar-19 13:33N 45°33' E 013°44'0 0.0
2017-Mar-19 12:33N 45°33' E 013°44'0 0.0
2017-Mar-19 11:33N 45°33' E 013°44'0 0.0
2017-Mar-19 10:33N 45°33' E 013°44'0 0.0
2017-Mar-19 09:30N 45°33' E 013°44'0 0.0
2017-Mar-19 08:33N 45°33' E 013°44'0 0.0
2017-Mar-19 07:27N 45°33' E 013°44'0 0.0
2017-Mar-19 06:33N 45°33' E 013°44'0 0.0
2017-Mar-19 05:33N 45°33' E 013°44'0 0.0
2017-Mar-19 04:33N 45°33' E 013°44'0 0.0
2017-Mar-19 03:33N 45°33' E 013°44'0 0.0
2017-Mar-19 02:33N 45°33' E 013°44'0 0.0
2017-Mar-19 01:33N 45°33' E 013°44'0 0.0
2017-Mar-19 00:33N 45°33' E 013°44'0 0.0
2017-Mar-18 23:33N 45°33' E 013°44'0 0.0
2017-Mar-18 22:33N 45°33' E 013°44'0 0.0
2017-Mar-18 21:33N 45°33' E 013°44'2 1.5
2017-Mar-18 20:33N 45°34' E 013°42'1211.8
2017-Mar-18 19:34N 45°32' E 013°26'1515.2
2017-Mar-18 18:34N 45°21' E 013°10'1616.2
2017-Mar-18 17:33N 45°05' E 013°09'1818.0
2017-Mar-18 16:33N 44°52' E 012°51'1818.0
2017-Mar-18 15:34N 44°39' E 012°33'18 1.3
2017-Mar-18 01:26N 44°27' E 012°15'2 2.4
2017-Mar-18 00:27N 44°29' E 012°16'910.1
2017-Mar-17 23:34N 44°34' E 012°27'1615.9
2017-Mar-17 22:33N 44°46' E 012°42'1616.2
2017-Mar-17 21:33N 44°58' E 012°57'1615.6
2017-Mar-17 20:33N 45°13' E 013°01'1414.4
2017-Mar-17 19:33N 45°27' E 013°08'1615.9
2017-Mar-17 18:33N 45°36' E 013°27'1111.3
2017-Mar-17 17:33N 45°46' E 013°34'2 1.5
2017-Mar-17 16:23N 45°47' E 013°33'0 0.0
2017-Mar-17 15:32N 45°47' E 013°33'0 0.0
2017-Mar-17 14:32N 45°47' E 013°33'0 0.0
2017-Mar-17 13:32N 45°47' E 013°33'0 0.0
2017-Mar-17 12:20N 45°47' E 013°33'0 0.0
2017-Mar-17 11:23N 45°47' E 013°33'0 0.0
2017-Mar-17 10:32N 45°47' E 013°33'0 0.0
2017-Mar-17 09:29N 45°47' E 013°33'0 0.0
2017-Mar-17 08:32N 45°47' E 013°33'0 0.0
2017-Mar-17 07:32N 45°47' E 013°33'0 0.0
2017-Mar-17 06:26N 45°47' E 013°33'0 0.0
2017-Mar-17 05:32N 45°47' E 013°33'0 0.0
2017-Mar-17 04:32N 45°47' E 013°33'0 0.0
2017-Mar-17 03:32N 45°47' E 013°33'0 0.0
2017-Mar-17 02:29N 45°47' E 013°33'0 0.0
2017-Mar-17 01:29N 45°47' E 013°33'0 0.0
2017-Mar-17 00:29N 45°47' E 013°33'0 0.0
2017-Mar-16 23:32N 45°47' E 013°33'0 0.0
2017-Mar-16 22:29N 45°47' E 013°33'0 0.0
2017-Mar-16 21:29N 45°47' E 013°33'0 0.0
2017-Mar-16 20:26N 45°47' E 013°33'0 0.0
2017-Mar-16 19:29N 45°47' E 013°33'0 0.0
2017-Mar-16 18:29N 45°47' E 013°33'0 0.0
2017-Mar-16 17:29N 45°47' E 013°33'0 0.0
2017-Mar-16 16:26N 45°47' E 013°33'0 0.0
2017-Mar-16 15:32N 45°47' E 013°33'0 0.0
2017-Mar-16 14:32N 45°47' E 013°33'0 0.0
2017-Mar-16 13:29N 45°47' E 013°33'0 0.0
2017-Mar-16 12:32N 45°47' E 013°33'0 0.0
2017-Mar-16 11:29N 45°47' E 013°33'0 0.0
2017-Mar-16 10:26N 45°47' E 013°33'0 0.0
2017-Mar-16 09:29N 45°47' E 013°33'0 0.0
2017-Mar-16 08:29N 45°47' E 013°33'0 0.0
2017-Mar-16 07:26N 45°47' E 013°33'4 4.2
2017-Mar-16 06:33N 45°44' E 013°36'1414.3
2017-Mar-16 05:33N 45°32' E 013°27'1616.1
2017-Mar-16 04:33N 45°20' E 013°12'1817.8
2017-Mar-16 03:33N 45°03' E 013°20'1817.7
2017-Mar-16 02:33N 44°48' E 013°33'1817.7
2017-Mar-16 01:33N 44°33' E 013°46'1817.5
2017-Mar-16 00:33N 44°18' E 013°59'1817.5
2017-Mar-15 23:33N 44°03' E 014°12'  

Dump ship's entire track history